Isabella, Minnesota
Current Conditions -  °F | °C
As of 12:14 AM on Thursday 23 Oct 2014 (Local Time) from KBFW Reporting Station
Clear Clear  
Wind Chill: 45°   Ceiling: Unl
Heat Index: 45°   Visibility: 10mi
Dew Point: 39°   Wind: 0mph
Humidity: 81%   Direction: NA
Pressure: 30.01"   Gusts: NA
Location:  47.62°N, 91.36°W
Report Text: KBFW 230514Z AUTO 00000KT 10SM CLR 07/04 A3001 RMK AO2
Loading
Personal Weather Stations






























Interactive Weather Map
Tropical Storm Tracking
New forecast layout! Learn more

10-Day Weather Forecast

Advertisements
Track Severe Weather on mobile